createdAt,value
2022-10-09T00:00:37.908Z,6.93
2022-10-09T00:03:04.117Z,6.25
2022-10-09T00:05:30.418Z,6.60
2022-10-09T00:07:56.693Z,5.70
2022-10-09T00:10:22.940Z,5.93
2022-10-09T00:12:49.828Z,6.40
2022-10-09T00:15:16.534Z,6.10
2022-10-09T00:17:42.778Z,6.70
2022-10-09T00:20:09.896Z,5.78
2022-10-09T00:22:36.257Z,6.65
2022-10-09T00:25:02.506Z,6.72
2022-10-09T00:27:28.703Z,6.75
2022-10-09T00:29:54.931Z,6.85
2022-10-09T00:32:21.710Z,6.60
2022-10-09T00:34:47.896Z,6.85
2022-10-09T00:37:14.160Z,6.63
2022-10-09T00:39:40.386Z,7.05
2022-10-09T00:42:06.620Z,6.00
2022-10-09T00:44:44.834Z,7.15
2022-10-09T00:47:15.355Z,6.70
2022-10-09T00:49:41.667Z,6.80
2022-10-09T00:52:07.870Z,6.95
2022-10-09T00:54:35.722Z,6.97
2022-10-09T00:57:02.279Z,7.30
2022-10-09T00:59:28.630Z,7.95
2022-10-09T01:01:54.921Z,7.32
2022-10-09T01:04:21.273Z,7.53
2022-10-09T01:06:47.441Z,7.20
2022-10-09T01:09:15.355Z,7.25
2022-10-09T01:11:48.951Z,7.20
2022-10-09T01:14:22.644Z,7.10
2022-10-09T01:16:57.588Z,6.80
2022-10-09T01:19:23.814Z,7.05
2022-10-09T01:21:50.101Z,7.13
2022-10-09T01:24:28.786Z,7.45
2022-10-09T01:26:54.965Z,7.68
2022-10-09T01:29:22.287Z,7.05
2022-10-09T01:31:49.440Z,7.35
2022-10-09T01:34:17.314Z,7.70
2022-10-09T01:36:44.376Z,7.65
2022-10-09T01:39:12.693Z,8.57
2022-10-09T01:41:38.887Z,7.72
2022-10-09T01:44:14.717Z,7.63
2022-10-09T01:46:40.994Z,7.80
2022-10-09T01:49:21.359Z,7.18
2022-10-09T01:51:53.585Z,7.13
2022-10-09T01:54:24.722Z,7.32
2022-10-09T01:56:52.391Z,7.28
2022-10-09T01:59:18.977Z,7.68
2022-10-09T02:01:46.573Z,7.20
2022-10-09T02:04:14.883Z,7.15
2022-10-09T02:06:41.723Z,7.75
2022-10-09T02:09:09.759Z,7.95
2022-10-09T02:11:37.623Z,8.02
2022-10-09T02:14:03.875Z,8.00
2022-10-09T02:16:37.418Z,6.88
2022-10-09T02:19:12.940Z,7.50
2022-10-09T02:21:46.836Z,7.22
2022-10-09T02:24:18.420Z,7.28
2022-10-09T02:26:44.637Z,7.38
2022-10-09T02:29:11.635Z,7.75
2022-10-09T02:31:38.779Z,7.35
2022-10-09T02:34:06.383Z,7.20
2022-10-09T02:36:33.207Z,7.82
2022-10-09T02:38:59.412Z,8.40
2022-10-09T02:41:26.336Z,7.63
2022-10-09T02:43:52.767Z,7.65
2022-10-09T02:46:19.344Z,7.70
2022-10-09T02:48:45.638Z,8.00
2022-10-09T02:51:11.870Z,7.68
2022-10-09T02:53:38.066Z,7.43
2022-10-09T02:56:04.424Z,6.80
2022-10-09T02:58:31.377Z,8.05
2022-10-09T03:00:57.622Z,7.57
2022-10-09T03:03:23.993Z,7.35
2022-10-09T03:05:59.294Z,7.43
2022-10-09T03:08:25.515Z,8.25
2022-10-09T03:10:51.772Z,7.90
2022-10-09T03:13:17.969Z,7.97
2022-10-09T03:15:44.166Z,7.50
2022-10-09T03:18:10.441Z,7.55
2022-10-09T03:20:37.440Z,7.07
2022-10-09T03:23:03.644Z,8.10
2022-10-09T03:25:30.001Z,7.05
2022-10-09T03:27:56.238Z,7.38
2022-10-09T03:30:22.450Z,7.60
2022-10-09T03:32:48.978Z,7.35
2022-10-09T03:35:15.342Z,7.93
2022-10-09T03:37:41.564Z,7.82
2022-10-09T03:40:07.938Z,8.20
2022-10-09T03:42:34.138Z,7.82
2022-10-09T03:45:04.316Z,7.40
2022-10-09T03:47:30.877Z,7.47
2022-10-09T03:49:57.139Z,7.95
2022-10-09T03:52:23.540Z,7.70
2022-10-09T03:54:49.727Z,8.13
2022-10-09T03:57:15.993Z,7.57
2022-10-09T03:59:42.293Z,8.15
2022-10-09T04:02:08.562Z,7.43
2022-10-09T04:04:34.786Z,7.82
2022-10-09T04:07:00.977Z,7.93
2022-10-09T04:09:27.146Z,7.22
2022-10-09T04:11:53.407Z,7.72
2022-10-09T04:14:19.624Z,7.30
2022-10-09T04:16:46.001Z,8.30
2022-10-09T04:19:12.432Z,7.78
2022-10-09T04:21:38.634Z,7.38
2022-10-09T04:24:08.209Z,7.57
2022-10-09T04:26:34.957Z,8.52
2022-10-09T04:29:01.272Z,7.80
2022-10-09T04:31:27.520Z,7.43
2022-10-09T04:33:56.832Z,8.35
2022-10-09T04:36:23.380Z,7.72
2022-10-09T04:38:49.663Z,7.90
2022-10-09T04:41:15.912Z,8.48
2022-10-09T04:43:42.161Z,8.00
2022-10-09T04:46:10.274Z,7.75
2022-10-09T04:48:44.352Z,7.82
2022-10-09T04:51:10.983Z,7.80
2022-10-09T04:53:37.667Z,7.72
2022-10-09T04:56:04.845Z,7.43
2022-10-09T04:58:31.465Z,8.30
2022-10-09T05:00:57.745Z,8.38
2022-10-09T05:03:23.960Z,8.55
2022-10-09T05:05:50.169Z,8.57
2022-10-09T05:08:16.402Z,7.35
2022-10-09T05:10:42.601Z,7.88
2022-10-09T05:13:08.797Z,8.80
2022-10-09T05:15:38.239Z,8.57
2022-10-09T05:18:04.494Z,8.25
2022-10-09T05:20:30.703Z,8.38
2022-10-09T05:22:56.906Z,7.78
2022-10-09T05:25:23.102Z,7.50
2022-10-09T05:27:49.326Z,8.07
2022-10-09T05:30:15.868Z,7.40
2022-10-09T05:32:42.056Z,7.53
2022-10-09T05:35:08.460Z,8.38
2022-10-09T05:37:34.639Z,8.48
2022-10-09T05:40:00.873Z,7.15
2022-10-09T05:42:27.064Z,7.80
2022-10-09T05:44:53.335Z,8.50
2022-10-09T05:47:19.739Z,9.00
2022-10-09T05:49:45.994Z,8.30
2022-10-09T05:52:12.297Z,7.63
2022-10-09T05:54:38.583Z,7.93
2022-10-09T05:57:04.862Z,7.80
2022-10-09T05:59:31.060Z,7.85
2022-10-09T06:01:57.320Z,8.43
2022-10-09T06:04:24.484Z,8.15
2022-10-09T06:06:51.125Z,6.95
2022-10-09T06:09:18.414Z,8.25
2022-10-09T06:11:44.992Z,7.20
2022-10-09T06:14:12.707Z,8.07
2022-10-09T06:16:43.029Z,8.50
2022-10-09T06:19:13.175Z,8.13
2022-10-09T06:21:39.405Z,8.68
2022-10-09T06:24:06.485Z,7.85
2022-10-09T06:26:32.951Z,7.65
2022-10-09T06:29:00.558Z,8.15
2022-10-09T06:31:30.779Z,7.90
2022-10-09T06:33:58.636Z,8.27
2022-10-09T06:36:26.630Z,8.02
2022-10-09T06:38:53.673Z,7.72
2022-10-09T06:41:20.984Z,7.78
2022-10-09T06:43:54.378Z,7.93
2022-10-09T06:46:21.891Z,8.00
2022-10-09T06:48:48.192Z,7.43
2022-10-09T06:51:15.523Z,7.53
2022-10-09T06:53:43.327Z,6.75
2022-10-09T06:56:10.528Z,7.90
2022-10-09T06:58:37.567Z,7.25
2022-10-09T07:01:03.851Z,6.35
2022-10-09T07:03:31.043Z,6.45
2022-10-09T07:06:09.284Z,6.53
2022-10-09T07:08:36.125Z,6.22
2022-10-09T07:11:12.200Z,5.53
2022-10-09T07:13:38.589Z,5.07
2022-10-09T07:16:05.197Z,6.03
2022-10-09T07:18:32.760Z,4.88
2022-10-09T07:21:00.328Z,4.78
2022-10-09T07:23:27.664Z,5.32
2022-10-09T07:25:53.855Z,5.30
2022-10-09T07:28:20.109Z,5.40
2022-10-09T07:30:46.334Z,4.82
2022-10-09T07:33:12.628Z,4.60
2022-10-09T07:35:38.846Z,4.35
2022-10-09T07:38:05.102Z,3.97
2022-10-09T07:40:34.401Z,4.32
2022-10-09T07:43:00.576Z,4.15
2022-10-09T07:45:26.784Z,3.80
2022-10-09T07:47:53.043Z,4.38
2022-10-09T07:50:19.321Z,4.00
2022-10-09T07:52:45.511Z,3.75
2022-10-09T07:55:11.751Z,4.10
2022-10-09T07:57:37.924Z,3.78
2022-10-09T08:00:04.441Z,3.80
2022-10-09T08:02:31.365Z,2.90
2022-10-09T08:04:57.577Z,3.63
2022-10-09T08:07:23.805Z,3.88
2022-10-09T08:09:49.983Z,3.30
2022-10-09T08:12:16.178Z,3.60
2022-10-09T08:14:42.445Z,2.97
2022-10-09T08:17:08.671Z,2.88
2022-10-09T08:19:34.867Z,3.13
2022-10-09T08:22:03.387Z,3.35
2022-10-09T08:24:29.968Z,4.05
2022-10-09T08:26:56.393Z,3.20
2022-10-09T08:29:22.612Z,4.30
2022-10-09T08:31:48.871Z,3.67
2022-10-09T08:34:15.650Z,3.47
2022-10-09T08:36:41.835Z,3.33
2022-10-09T08:39:08.080Z,3.63
2022-10-09T08:41:48.392Z,2.92
2022-10-09T08:44:24.020Z,3.30
2022-10-09T08:47:05.429Z,2.90
2022-10-09T08:51:59.966Z,2.70
2022-10-09T08:54:35.984Z,2.53
2022-10-09T08:57:03.948Z,3.25
2022-10-09T08:59:31.187Z,3.08
2022-10-09T09:02:17.636Z,2.72
2022-10-09T09:04:54.457Z,2.85
2022-10-09T09:07:20.960Z,2.97
2022-10-09T09:09:50.264Z,2.78
2022-10-09T09:12:31.307Z,3.10
2022-10-09T09:15:27.140Z,2.45
2022-10-09T09:17:53.344Z,3.40
2022-10-09T09:20:22.957Z,3.13
2022-10-09T09:22:50.093Z,3.10
2022-10-09T09:25:36.097Z,2.70
2022-10-09T09:28:12.494Z,3.20
2022-10-09T09:30:42.467Z,2.85
2022-10-09T09:33:15.916Z,3.08
2022-10-09T09:35:48.026Z,2.60
2022-10-09T09:38:14.524Z,2.80
2022-10-09T09:40:45.889Z,2.55
2022-10-09T09:43:23.668Z,2.55
2022-10-09T09:45:56.755Z,3.97
2022-10-09T09:48:28.997Z,2.47
2022-10-09T09:51:16.165Z,3.08
2022-10-09T09:53:43.408Z,2.88
2022-10-09T09:56:10.560Z,2.60
2022-10-09T09:58:39.164Z,2.83
2022-10-09T10:01:06.507Z,2.83
2022-10-09T10:03:34.572Z,2.63
2022-10-09T10:06:00.815Z,2.65
2022-10-09T10:08:27.099Z,2.33
2022-10-09T10:10:54.837Z,2.20
2022-10-09T10:13:22.777Z,2.53
2022-10-09T10:15:53.712Z,2.40
2022-10-09T10:18:20.774Z,2.20
2022-10-09T10:20:48.569Z,2.35
2022-10-09T10:23:23.839Z,2.10
2022-10-09T10:25:50.736Z,2.40
2022-10-09T10:28:18.498Z,2.08
2022-10-09T10:30:45.091Z,2.30
2022-10-09T10:33:11.380Z,2.22
2022-10-09T10:35:39.252Z,1.83
2022-10-09T10:38:25.400Z,1.90
2022-10-09T10:41:10.386Z,2.08
2022-10-09T10:43:48.302Z,2.10
2022-10-09T10:46:26.736Z,2.28
2022-10-09T10:48:53.415Z,1.90
2022-10-09T10:51:25.721Z,1.75
2022-10-09T10:53:57.828Z,2.03
2022-10-09T10:56:31.970Z,2.75
2022-10-09T10:59:04.132Z,2.67
2022-10-09T11:01:35.096Z,1.92
2022-10-09T11:04:10.769Z,2.17
2022-10-09T11:06:46.555Z,2.13
2022-10-09T11:09:21.121Z,2.20
2022-10-09T11:11:55.530Z,1.67
2022-10-09T11:14:21.679Z,1.90
2022-10-09T11:17:08.193Z,1.73
2022-10-09T11:19:59.763Z,2.00
2022-10-09T11:22:29.006Z,1.70
2022-10-09T11:24:57.988Z,1.60
2022-10-09T11:27:48.862Z,1.90
2022-10-09T11:30:16.215Z,1.60
2022-10-09T11:33:21.417Z,1.80
2022-10-09T11:35:50.091Z,1.92
2022-10-09T11:38:31.470Z,2.42
2022-10-09T11:40:58.629Z,2.20
2022-10-09T11:43:24.852Z,1.90
2022-10-09T11:46:27.489Z,1.48
2022-10-09T11:48:59.261Z,2.17
2022-10-09T11:51:28.314Z,1.65
2022-10-09T11:53:54.537Z,1.60
2022-10-09T11:56:28.339Z,1.92
2022-10-09T11:59:01.777Z,1.90
2022-10-09T12:01:36.956Z,1.42
2022-10-09T12:04:12.351Z,1.45
2022-10-09T12:07:04.960Z,1.60
2022-10-09T12:09:49.378Z,1.45
2022-10-09T12:12:15.742Z,1.30
2022-10-09T12:14:43.254Z,1.42
2022-10-09T12:17:22.729Z,1.33
2022-10-09T12:20:00.784Z,1.30
2022-10-09T12:22:27.344Z,1.20
2022-10-09T12:24:55.303Z,1.10
2022-10-09T12:27:25.822Z,1.05
2022-10-09T12:29:56.664Z,1.40
2022-10-09T12:32:28.071Z,1.10
2022-10-09T12:34:55.356Z,1.17
2022-10-09T12:37:22.701Z,1.20
2022-10-09T12:39:49.591Z,1.35
2022-10-09T12:42:21.293Z,1.50
2022-10-09T12:44:48.672Z,1.08
2022-10-09T12:47:22.426Z,1.27
2022-10-09T12:50:15.163Z,1.33
2022-10-09T12:52:48.628Z,1.40
2022-10-09T12:55:16.175Z,1.55
2022-10-09T12:57:42.739Z,1.30
2022-10-09T13:00:13.459Z,1.55
2022-10-09T13:02:40.164Z,5.57
2022-10-09T13:05:06.596Z,2.60
2022-10-09T13:07:32.919Z,1.80
2022-10-09T13:10:04.430Z,1.80
2022-10-09T13:12:30.972Z,1.60
2022-10-09T13:15:05.045Z,1.58
2022-10-09T13:17:33.389Z,1.40
2022-10-09T13:20:22.720Z,1.33
2022-10-09T13:22:59.238Z,1.45
2022-10-09T13:25:27.147Z,1.20
2022-10-09T13:27:53.651Z,1.10
2022-10-09T13:30:19.867Z,1.42
2022-10-09T13:32:46.138Z,1.30
2022-10-09T13:35:12.345Z,1.55
2022-10-09T13:37:38.631Z,1.58
2022-10-09T13:40:05.796Z,1.33
2022-10-09T13:42:33.300Z,1.90
2022-10-09T13:44:59.511Z,1.75
2022-10-09T13:47:25.694Z,1.80
2022-10-09T13:49:52.035Z,1.65
2022-10-09T13:52:18.483Z,2.50
2022-10-09T13:54:44.767Z,1.70
2022-10-09T13:57:10.976Z,1.63
2022-10-09T13:59:37.867Z,1.70
2022-10-09T14:02:04.079Z,1.45
2022-10-09T14:04:30.529Z,2.03
2022-10-09T14:06:56.784Z,1.90
2022-10-09T14:09:24.185Z,1.60
2022-10-09T14:11:50.478Z,2.05
2022-10-09T14:14:16.767Z,1.70
2022-10-09T14:16:43.144Z,1.55
2022-10-09T14:19:09.471Z,1.55
2022-10-09T14:21:35.765Z,1.80
2022-10-09T14:24:02.525Z,1.83
2022-10-09T14:26:28.975Z,1.80
2022-10-09T14:28:55.491Z,1.67
2022-10-09T14:31:21.750Z,1.60
2022-10-09T14:33:48.267Z,1.80
2022-10-09T14:36:18.448Z,1.60
2022-10-09T14:38:44.718Z,1.73
2022-10-09T14:41:13.205Z,1.75
2022-10-09T14:43:39.473Z,1.83
2022-10-09T14:46:07.119Z,1.95
2022-10-09T14:48:33.812Z,1.83
2022-10-09T14:51:04.168Z,1.70
2022-10-09T14:53:30.379Z,1.90
2022-10-09T14:55:59.116Z,2.08
2022-10-09T14:58:25.400Z,1.92
2022-10-09T15:00:51.584Z,2.15
2022-10-09T15:03:17.947Z,1.40
2022-10-09T15:05:44.293Z,1.80
2022-10-09T15:08:10.532Z,1.70
2022-10-09T15:10:36.755Z,1.80
2022-10-09T15:13:03.064Z,1.60
2022-10-09T15:15:32.521Z,1.85
2022-10-09T15:17:58.979Z,1.98
2022-10-09T15:20:25.329Z,1.70
2022-10-09T15:22:51.568Z,1.75
2022-10-09T15:25:17.866Z,1.60
2022-10-09T15:27:44.111Z,1.50
2022-10-09T15:30:10.631Z,1.55
2022-10-09T15:32:36.931Z,1.92
2022-10-09T15:35:03.138Z,1.52
2022-10-09T15:37:29.337Z,1.70
2022-10-09T15:39:55.527Z,1.90
2022-10-09T15:42:21.728Z,1.70
2022-10-09T15:44:48.368Z,2.00
2022-10-09T15:47:16.774Z,2.05
2022-10-09T15:49:46.624Z,1.88
2022-10-09T15:52:15.293Z,1.70
2022-10-09T15:54:41.567Z,2.10
2022-10-09T15:57:08.015Z,1.88
2022-10-09T15:59:38.070Z,2.30
2022-10-09T16:02:04.522Z,2.42
2022-10-09T16:04:30.979Z,2.35
2022-10-09T16:06:58.217Z,2.65
2022-10-09T16:09:24.646Z,2.47
2022-10-09T16:11:50.909Z,2.55
2022-10-09T16:14:17.241Z,2.42
2022-10-09T16:16:43.558Z,2.65
2022-10-09T16:19:10.102Z,2.83
2022-10-09T16:21:36.561Z,2.40
2022-10-09T16:24:02.848Z,2.53
2022-10-09T16:26:29.720Z,2.78
2022-10-09T16:28:56.169Z,2.80
2022-10-09T16:31:23.966Z,3.22
2022-10-09T16:33:50.270Z,3.20
2022-10-09T16:36:16.886Z,3.35
2022-10-09T16:38:43.225Z,3.15
2022-10-09T16:41:10.637Z,3.35
2022-10-09T16:43:37.936Z,3.38
2022-10-09T16:46:09.980Z,2.55
2022-10-09T16:48:36.323Z,3.08
2022-10-09T16:51:06.552Z,2.38
2022-10-09T16:53:34.028Z,2.70
2022-10-09T16:56:06.877Z,2.83
2022-10-09T16:58:34.117Z,2.58
2022-10-09T17:01:03.949Z,2.50
2022-10-09T17:03:33.851Z,3.20
2022-10-09T17:06:00.232Z,2.33
2022-10-09T17:08:26.498Z,2.40
2022-10-09T17:10:52.739Z,2.05
2022-10-09T17:13:18.979Z,2.38
2022-10-09T17:15:45.383Z,2.47
2022-10-09T17:18:11.708Z,2.83
2022-10-09T17:20:38.687Z,2.85
2022-10-09T17:23:07.761Z,2.33
2022-10-09T17:25:37.847Z,2.20
2022-10-09T17:28:07.885Z,2.17
2022-10-09T17:30:37.850Z,2.55
2022-10-09T17:33:04.170Z,2.10
2022-10-09T17:35:30.717Z,2.47
2022-10-09T17:37:57.924Z,2.22
2022-10-09T17:40:24.852Z,2.67
2022-10-09T17:42:51.222Z,2.38
2022-10-09T17:45:17.744Z,2.83
2022-10-09T17:47:43.951Z,2.30
2022-10-09T17:50:10.224Z,2.20
2022-10-09T17:52:36.494Z,2.67
2022-10-09T17:55:02.808Z,2.10
2022-10-09T17:57:29.042Z,2.30
2022-10-09T17:59:55.248Z,13.90
2022-10-09T18:02:21.485Z,8.82
2022-10-09T18:04:47.693Z,4.20
2022-10-09T18:07:14.975Z,3.22
2022-10-09T18:09:41.203Z,3.50
2022-10-09T18:12:07.452Z,3.80
2022-10-09T18:14:33.750Z,3.50
2022-10-09T18:17:00.033Z,2.60
2022-10-09T18:19:26.279Z,2.90
2022-10-09T18:21:52.842Z,2.75
2022-10-09T18:24:19.062Z,2.47
2022-10-09T18:26:45.392Z,2.45
2022-10-09T18:29:11.937Z,2.80
2022-10-09T18:31:38.912Z,2.75
2022-10-09T18:34:05.294Z,2.55
2022-10-09T18:36:31.793Z,2.88
2022-10-09T18:39:03.486Z,2.53
2022-10-09T18:41:29.962Z,2.53
2022-10-09T18:43:59.691Z,2.83
2022-10-09T18:46:28.988Z,3.20
2022-10-09T18:48:55.544Z,2.72
2022-10-09T18:51:23.189Z,3.03
2022-10-09T18:53:51.978Z,2.60
2022-10-09T18:56:19.519Z,2.90
2022-10-09T18:58:45.937Z,2.67
2022-10-09T19:01:12.383Z,2.85
2022-10-09T19:03:38.767Z,3.28
2022-10-09T19:06:05.222Z,3.15
2022-10-09T19:08:31.405Z,3.20
2022-10-09T19:10:57.625Z,2.97
2022-10-09T19:13:24.931Z,3.17
2022-10-09T19:15:55.185Z,3.00
2022-10-09T19:18:21.714Z,3.00
2022-10-09T19:20:48.277Z,2.70
2022-10-09T19:23:15.191Z,5.32
2022-10-09T19:25:51.528Z,2.83
2022-10-09T19:28:17.796Z,3.00
2022-10-09T19:30:44.095Z,2.80
2022-10-09T19:33:10.838Z,2.85
2022-10-09T19:35:50.861Z,2.88
2022-10-09T19:38:17.099Z,2.75
2022-10-09T19:40:43.924Z,3.10
2022-10-09T19:43:10.648Z,3.40
2022-10-09T19:45:36.859Z,2.97
2022-10-09T19:48:03.296Z,3.42
2022-10-09T19:50:29.663Z,3.30
2022-10-09T19:52:55.987Z,2.80
2022-10-09T19:55:23.544Z,3.10
2022-10-09T19:57:51.424Z,2.85
2022-10-09T20:00:18.003Z,2.50
2022-10-09T20:02:44.220Z,3.00
2022-10-09T20:05:10.662Z,3.53
2022-10-09T20:07:36.877Z,3.67
2022-10-09T20:10:04.060Z,3.33
2022-10-09T20:12:31.037Z,3.15
2022-10-09T20:14:57.288Z,3.30
2022-10-09T20:17:24.069Z,3.20
2022-10-09T20:19:50.325Z,2.88
2022-10-09T20:22:16.528Z,3.25
2022-10-09T20:24:42.764Z,3.40
2022-10-09T20:27:08.954Z,2.97
2022-10-09T20:29:35.143Z,3.10
2022-10-09T20:32:01.387Z,3.55
2022-10-09T20:34:27.687Z,3.97
2022-10-09T20:36:53.912Z,3.65
2022-10-09T20:39:21.314Z,3.15
2022-10-09T20:41:47.767Z,3.60
2022-10-09T20:44:14.414Z,3.20
2022-10-09T20:46:41.068Z,3.03
2022-10-09T20:49:08.777Z,3.33
2022-10-09T20:51:35.664Z,4.00
2022-10-09T20:54:02.250Z,3.72
2022-10-09T20:56:29.474Z,3.22
2022-10-09T20:58:56.078Z,3.47
2022-10-09T21:01:22.860Z,3.25
2022-10-09T21:03:49.176Z,3.20
2022-10-09T21:06:16.680Z,3.20
2022-10-09T21:08:42.978Z,3.42
2022-10-09T21:11:10.505Z,3.70
2022-10-09T21:13:37.456Z,3.20
2022-10-09T21:16:07.904Z,3.25
2022-10-09T21:18:34.159Z,3.30
2022-10-09T21:21:04.895Z,3.55
2022-10-09T21:23:31.139Z,3.53
2022-10-09T21:25:57.364Z,3.35
2022-10-09T21:28:23.931Z,3.75
2022-10-09T21:30:50.299Z,3.60
2022-10-09T21:33:16.880Z,3.38
2022-10-09T21:35:45.089Z,3.22
2022-10-09T21:38:12.842Z,3.58
2022-10-09T21:40:39.484Z,3.58
2022-10-09T21:43:05.790Z,3.40
2022-10-09T21:45:32.370Z,3.03
2022-10-09T21:47:58.618Z,3.20
2022-10-09T21:50:25.099Z,3.35
2022-10-09T21:52:51.807Z,3.50
2022-10-09T21:55:18.286Z,3.30
2022-10-09T21:57:45.271Z,3.88
2022-10-09T22:00:11.917Z,3.70
2022-10-09T22:02:38.212Z,3.22
2022-10-09T22:05:04.641Z,3.47
2022-10-09T22:07:32.728Z,3.53
2022-10-09T22:09:59.279Z,3.50
2022-10-09T22:12:25.614Z,3.20
2022-10-09T22:14:51.900Z,3.47
2022-10-09T22:17:18.285Z,3.17
2022-10-09T22:19:44.568Z,3.30
2022-10-09T22:22:10.787Z,3.25
2022-10-09T22:24:37.010Z,3.58
2022-10-09T22:27:03.307Z,3.33
2022-10-09T22:29:29.542Z,3.28
2022-10-09T22:31:55.739Z,3.05
2022-10-09T22:34:21.967Z,3.13
2022-10-09T22:36:48.214Z,3.17
2022-10-09T22:39:14.457Z,3.30
2022-10-09T22:41:40.657Z,3.67
2022-10-09T22:44:08.078Z,3.25
2022-10-09T22:46:36.144Z,3.50
2022-10-09T22:49:02.776Z,3.20
2022-10-09T22:51:29.362Z,2.95
2022-10-09T22:53:56.176Z,3.00
2022-10-09T22:56:23.686Z,3.30
2022-10-09T22:58:50.548Z,3.92
2022-10-09T23:01:18.491Z,3.30
2022-10-09T23:03:44.867Z,3.45
2022-10-09T23:06:16.133Z,3.35
2022-10-09T23:08:43.272Z,3.47
2022-10-09T23:11:09.902Z,3.22
2022-10-09T23:13:36.162Z,3.30
2022-10-09T23:16:03.636Z,3.55
2022-10-09T23:18:30.030Z,2.95
2022-10-09T23:20:56.628Z,3.67
2022-10-09T23:23:22.846Z,3.13
2022-10-09T23:25:49.079Z,3.47
2022-10-09T23:28:15.492Z,3.40
2022-10-09T23:30:41.849Z,3.40
2022-10-09T23:33:13.522Z,3.25
2022-10-09T23:35:43.945Z,3.50
2022-10-09T23:38:10.168Z,3.40
2022-10-09T23:40:36.479Z,3.00
2022-10-09T23:43:02.708Z,3.03
2022-10-09T23:45:28.898Z,3.50
2022-10-09T23:47:55.259Z,3.70
2022-10-09T23:50:21.455Z,3.55
2022-10-09T23:52:47.938Z,3.17
2022-10-09T23:55:14.339Z,3.30
2022-10-09T23:57:40.523Z,3.55
